createdAt,value
2022-10-31T00:00:42.916Z,40.43
2022-10-31T00:03:11.999Z,44.97
2022-10-31T00:05:45.352Z,36.00
2022-10-31T00:08:15.942Z,41.20
2022-10-31T00:10:46.437Z,39.23
2022-10-31T00:13:19.053Z,41.83
2022-10-31T00:15:48.966Z,46.00
2022-10-31T00:18:18.172Z,44.57
2022-10-31T00:21:02.440Z,45.10
2022-10-31T00:23:30.945Z,41.77
2022-10-31T00:26:03.865Z,46.33
2022-10-31T00:28:33.268Z,47.77
2022-10-31T00:31:06.556Z,45.40
2022-10-31T00:33:37.669Z,47.80
2022-10-31T00:36:10.029Z,45.77
2022-10-31T00:38:38.627Z,51.57
2022-10-31T00:41:07.232Z,48.87
2022-10-31T00:43:36.024Z,44.77
2022-10-31T00:46:06.738Z,49.40
2022-10-31T00:48:35.324Z,48.37
2022-10-31T00:51:03.893Z,48.43
2022-10-31T00:53:33.026Z,47.03
2022-10-31T00:56:01.464Z,47.50
2022-10-31T00:58:32.478Z,47.10
2022-10-31T01:01:01.376Z,44.90
2022-10-31T01:03:36.039Z,45.90
2022-10-31T01:06:07.819Z,45.80
2022-10-31T01:11:38.656Z,47.70
2022-10-31T01:14:08.551Z,46.03
2022-10-31T01:16:37.441Z,40.57
2022-10-31T01:19:07.270Z,47.90
2022-10-31T01:21:36.023Z,48.07
2022-10-31T01:24:04.453Z,46.37
2022-10-31T01:26:35.813Z,46.27
2022-10-31T01:29:12.501Z,47.70
2022-10-31T01:31:44.748Z,46.83
2022-10-31T01:34:19.173Z,47.13
2022-10-31T01:36:52.659Z,44.43
2022-10-31T01:39:21.619Z,47.07
2022-10-31T01:41:53.953Z,53.40
2022-10-31T01:45:05.116Z,46.70
2022-10-31T01:47:45.893Z,45.67
2022-10-31T01:50:30.912Z,42.70
2022-10-31T01:53:00.087Z,47.27
2022-10-31T01:55:32.185Z,45.80
2022-10-31T01:58:05.755Z,41.83
2022-10-31T02:00:34.383Z,42.70
2022-10-31T02:03:03.950Z,37.97
2022-10-31T02:05:34.295Z,43.77
2022-10-31T02:08:07.756Z,39.53
2022-10-31T02:10:38.989Z,39.83
2022-10-31T02:15:57.932Z,37.87
2022-10-31T02:18:31.772Z,40.10
2022-10-31T02:21:15.594Z,40.87
2022-10-31T02:24:49.095Z,43.23
2022-10-31T02:27:54.875Z,42.63
2022-10-31T02:30:26.520Z,43.77
2022-10-31T02:33:10.043Z,47.63
2022-10-31T02:35:51.818Z,41.50
2022-10-31T02:38:31.657Z,49.53
2022-10-31T02:41:08.844Z,47.60
2022-10-31T02:43:47.993Z,45.13
2022-10-31T02:46:22.717Z,45.97
2022-10-31T02:48:59.023Z,43.57
2022-10-31T02:51:28.301Z,47.80
2022-10-31T02:53:57.010Z,48.07
2022-10-31T02:56:25.636Z,53.00
2022-10-31T02:58:57.366Z,49.27
2022-10-31T03:02:03.094Z,49.83
2022-10-31T03:04:54.405Z,48.07
2022-10-31T03:07:31.299Z,56.63
2022-10-31T03:10:08.315Z,48.70
2022-10-31T03:12:47.712Z,58.00
2022-10-31T03:15:24.850Z,53.60
2022-10-31T03:17:59.153Z,50.87
2022-10-31T03:20:36.152Z,46.93
2022-10-31T03:23:05.763Z,48.53
2022-10-31T03:25:35.457Z,46.53
2022-10-31T03:28:06.773Z,48.13
2022-10-31T03:30:38.386Z,51.20
2022-10-31T03:33:11.369Z,53.93
2022-10-31T03:35:45.663Z,52.27
2022-10-31T03:38:16.272Z,54.87
2022-10-31T03:40:48.682Z,53.10
2022-10-31T03:45:51.341Z,50.77
2022-10-31T03:48:22.694Z,56.87
2022-10-31T03:51:03.488Z,53.50
2022-10-31T03:53:36.990Z,61.47
2022-10-31T03:56:14.872Z,55.47
2022-10-31T03:58:50.727Z,59.47
2022-10-31T04:01:21.133Z,55.40
2022-10-31T04:03:50.631Z,54.17
2022-10-31T04:06:23.948Z,59.60
2022-10-31T04:08:58.131Z,55.10
2022-10-31T04:11:31.536Z,60.73
2022-10-31T04:14:02.231Z,61.27
2022-10-31T04:16:30.959Z,62.13
2022-10-31T04:18:59.356Z,55.17
2022-10-31T04:21:33.905Z,61.43
2022-10-31T04:24:02.261Z,63.83
2022-10-31T04:26:30.655Z,65.70
2022-10-31T04:28:59.019Z,72.17
2022-10-31T04:31:27.962Z,69.47
2022-10-31T04:33:56.330Z,70.37
2022-10-31T04:36:25.620Z,82.03
2022-10-31T04:38:55.987Z,79.37
2022-10-31T04:41:25.150Z,78.20
2022-10-31T04:43:53.741Z,75.60
2022-10-31T04:46:22.139Z,75.30
2022-10-31T04:48:50.907Z,76.90
2022-10-31T04:51:20.470Z,99.13
2022-10-31T04:53:48.766Z,84.97
2022-10-31T04:56:18.510Z,82.00
2022-10-31T04:58:46.955Z,86.60
2022-10-31T05:01:15.733Z,87.73
2022-10-31T05:03:44.378Z,87.40
2022-10-31T05:06:12.815Z,87.40
2022-10-31T05:08:41.191Z,88.17
2022-10-31T05:11:09.549Z,80.23
2022-10-31T05:13:39.382Z,90.33
2022-10-31T05:16:08.641Z,85.33
2022-10-31T05:18:37.104Z,81.13
2022-10-31T05:21:05.674Z,79.87
2022-10-31T05:23:33.964Z,86.40
2022-10-31T05:26:02.419Z,86.73
2022-10-31T05:28:30.811Z,81.43
2022-10-31T05:31:00.487Z,87.10
2022-10-31T05:33:28.799Z,87.57
2022-10-31T05:35:57.243Z,78.93
2022-10-31T05:38:25.699Z,77.90
2022-10-31T05:40:58.659Z,76.47
2022-10-31T05:43:34.272Z,76.63
2022-10-31T05:46:08.150Z,74.97
2022-10-31T05:48:38.883Z,77.27
2022-10-31T05:53:51.482Z,81.53
2022-10-31T05:56:21.131Z,86.17
2022-10-31T05:58:51.757Z,84.10
2022-10-31T06:01:22.255Z,104.20
2022-10-31T06:04:00.838Z,83.50
2022-10-31T06:06:29.105Z,85.37
2022-10-31T06:08:57.516Z,91.73
2022-10-31T06:11:26.583Z,87.40
2022-10-31T06:13:54.886Z,82.80
2022-10-31T06:16:24.632Z,79.73
2022-10-31T06:18:53.137Z,81.63
2022-10-31T06:21:21.456Z,89.87
2022-10-31T06:23:49.830Z,89.03
2022-10-31T06:26:18.248Z,99.60
2022-10-31T06:28:46.587Z,102.57
2022-10-31T06:31:14.925Z,107.07
2022-10-31T06:33:45.938Z,135.20
2022-10-31T06:36:14.220Z,143.00
2022-10-31T06:38:42.725Z,132.87
2022-10-31T06:41:11.094Z,114.27
2022-10-31T06:43:39.457Z,121.40
2022-10-31T06:46:08.051Z,111.60
2022-10-31T06:48:36.579Z,110.93
2022-10-31T06:51:07.313Z,114.67
2022-10-31T06:53:35.705Z,113.37
2022-10-31T06:56:04.028Z,99.00
2022-10-31T06:58:32.413Z,100.50
2022-10-31T07:01:02.347Z,94.50
2022-10-31T07:03:30.728Z,86.57
2022-10-31T07:05:59.664Z,103.07
2022-10-31T07:08:29.502Z,87.03
2022-10-31T07:10:59.321Z,93.80
2022-10-31T07:13:27.984Z,97.97
2022-10-31T07:16:02.014Z,101.73
2022-10-31T07:18:30.547Z,96.47
2022-10-31T07:20:59.543Z,91.27
2022-10-31T07:23:29.325Z,84.77
2022-10-31T07:25:58.652Z,93.03
2022-10-31T07:28:28.200Z,87.40
2022-10-31T07:30:58.536Z,95.47
2022-10-31T07:33:28.405Z,88.93
2022-10-31T07:35:56.740Z,95.93
2022-10-31T07:38:26.171Z,88.80
2022-10-31T07:40:55.868Z,83.40
2022-10-31T07:43:24.128Z,77.77
2022-10-31T07:45:53.928Z,85.53
2022-10-31T07:48:22.601Z,91.00
2022-10-31T07:50:50.829Z,84.97
2022-10-31T07:53:19.400Z,86.33
2022-10-31T07:55:47.932Z,90.03
2022-10-31T07:58:20.098Z,87.93
2022-10-31T08:00:50.417Z,88.03
2022-10-31T08:03:21.009Z,88.90
2022-10-31T08:05:49.758Z,96.03
2022-10-31T08:08:18.593Z,81.10
2022-10-31T08:10:46.866Z,83.57
2022-10-31T08:13:21.564Z,84.30
2022-10-31T08:15:51.558Z,81.13
2022-10-31T08:18:20.295Z,77.27
2022-10-31T08:20:48.553Z,84.23
2022-10-31T08:23:17.051Z,69.90
2022-10-31T08:25:47.980Z,81.93
2022-10-31T08:28:17.953Z,73.83
2022-10-31T08:30:46.982Z,81.53
2022-10-31T08:33:18.100Z,76.20
2022-10-31T08:35:46.965Z,72.77
2022-10-31T08:38:15.597Z,75.13
2022-10-31T08:40:44.391Z,67.37
2022-10-31T08:43:15.571Z,64.43
2022-10-31T08:45:46.592Z,69.00
2022-10-31T08:48:17.637Z,68.37
2022-10-31T08:50:48.069Z,67.97
2022-10-31T08:53:18.773Z,69.43
2022-10-31T08:55:48.778Z,57.50
2022-10-31T08:58:19.526Z,66.33
2022-10-31T09:00:52.462Z,62.70
2022-10-31T09:03:23.369Z,65.00
2022-10-31T09:05:52.399Z,68.37
2022-10-31T09:08:20.687Z,68.57
2022-10-31T09:10:49.094Z,64.27
2022-10-31T09:13:21.818Z,66.13
2022-10-31T09:15:52.765Z,62.53
2022-10-31T09:18:24.192Z,66.03
2022-10-31T09:20:52.797Z,65.03
2022-10-31T09:23:23.391Z,64.77
2022-10-31T09:25:56.418Z,63.63
2022-10-31T09:28:26.236Z,61.43
2022-10-31T09:30:56.386Z,71.37
2022-10-31T09:33:25.238Z,60.57
2022-10-31T09:35:53.635Z,69.43
2022-10-31T09:38:24.416Z,61.93
2022-10-31T09:41:00.438Z,69.70
2022-10-31T09:43:41.970Z,72.33
2022-10-31T09:46:20.840Z,60.40
2022-10-31T09:49:06.595Z,64.80
2022-10-31T09:51:44.739Z,61.73
2022-10-31T09:54:21.567Z,70.57
2022-10-31T09:56:54.410Z,57.67
2022-10-31T09:59:32.458Z,56.17
2022-10-31T10:02:07.446Z,55.93
2022-10-31T10:04:43.410Z,59.93
2022-10-31T10:07:24.163Z,57.70
2022-10-31T10:09:52.517Z,55.87
2022-10-31T10:12:39.896Z,56.40
2022-10-31T10:15:35.760Z,51.97
2022-10-31T10:18:18.641Z,51.87
2022-10-31T10:21:00.857Z,49.73
2022-10-31T10:23:49.136Z,46.67
2022-10-31T10:26:21.635Z,45.33
2022-10-31T10:28:56.047Z,46.07
2022-10-31T10:31:29.940Z,43.00
2022-10-31T10:34:08.837Z,39.63
2022-10-31T10:36:43.565Z,40.30
2022-10-31T10:39:20.366Z,38.40
2022-10-31T10:42:16.117Z,35.60
2022-10-31T10:45:07.008Z,35.40
2022-10-31T10:47:43.685Z,39.70
2022-10-31T10:50:21.229Z,40.67
2022-10-31T10:53:01.015Z,35.97
2022-10-31T10:55:39.342Z,35.93
2022-10-31T10:58:10.604Z,31.37
2022-10-31T11:00:43.044Z,29.67
2022-10-31T11:03:12.537Z,32.77
2022-10-31T11:05:47.082Z,29.17
2022-10-31T11:08:27.437Z,26.70
2022-10-31T11:11:01.743Z,30.77
2022-10-31T11:13:30.700Z,24.23
2022-10-31T11:16:04.685Z,26.37
2022-10-31T11:18:35.248Z,23.97
2022-10-31T11:21:06.843Z,25.90
2022-10-31T11:23:35.653Z,22.97
2022-10-31T11:26:07.350Z,24.27
2022-10-31T11:28:36.420Z,21.87
2022-10-31T11:31:10.949Z,20.60
2022-10-31T11:33:41.053Z,18.00
2022-10-31T11:36:23.432Z,18.13
2022-10-31T11:38:53.391Z,16.97
2022-10-31T11:41:29.182Z,16.03
2022-10-31T11:44:05.772Z,15.90
2022-10-31T11:46:38.501Z,16.40
2022-10-31T11:49:15.576Z,17.87
2022-10-31T11:51:50.846Z,13.63
2022-10-31T11:54:24.761Z,13.13
2022-10-31T11:56:53.504Z,11.77
2022-10-31T11:59:29.851Z,14.97
2022-10-31T12:02:00.855Z,14.20
2022-10-31T12:04:56.818Z,12.03
2022-10-31T12:07:27.303Z,12.43
2022-10-31T12:09:57.452Z,12.60
2022-10-31T12:12:55.959Z,14.43
2022-10-31T12:15:34.618Z,14.03
2022-10-31T12:18:34.968Z,11.20
2022-10-31T12:21:19.987Z,12.30
2022-10-31T12:24:05.897Z,11.07
2022-10-31T12:26:41.934Z,13.23
2022-10-31T12:29:35.845Z,11.70
2022-10-31T12:32:22.352Z,13.77
2022-10-31T12:35:24.555Z,11.93
2022-10-31T12:38:18.055Z,15.07
2022-10-31T12:41:04.850Z,17.67
2022-10-31T12:43:47.231Z,14.97
2022-10-31T12:46:28.245Z,18.23
2022-10-31T12:49:19.317Z,15.33
2022-10-31T12:52:02.872Z,15.67
2022-10-31T12:54:56.207Z,13.50
2022-10-31T12:57:33.805Z,17.73
2022-10-31T13:00:07.571Z,14.23
2022-10-31T13:02:43.956Z,14.17
2022-10-31T13:05:30.062Z,13.23
2022-10-31T13:08:02.910Z,12.20
2022-10-31T13:10:36.812Z,15.53
2022-10-31T13:13:16.907Z,16.87
2022-10-31T13:15:53.285Z,15.53
2022-10-31T13:18:41.924Z,15.27
2022-10-31T13:21:15.435Z,17.60
2022-10-31T13:23:51.040Z,19.13
2022-10-31T13:26:33.854Z,22.00
2022-10-31T13:29:14.006Z,17.20
2022-10-31T13:31:43.722Z,18.40
2022-10-31T13:34:24.340Z,18.57
2022-10-31T13:37:02.992Z,18.43
2022-10-31T13:39:59.605Z,17.97
2022-10-31T13:42:46.793Z,18.03
2022-10-31T13:45:19.089Z,17.07
2022-10-31T13:48:00.574Z,26.17
2022-10-31T13:50:31.715Z,20.87
2022-10-31T13:53:16.183Z,19.03
2022-10-31T13:55:46.729Z,21.97
2022-10-31T13:58:30.925Z,22.33
2022-10-31T14:01:18.611Z,23.13
2022-10-31T14:04:06.109Z,28.57
2022-10-31T14:06:42.781Z,21.27
2022-10-31T14:09:32.839Z,17.40
2022-10-31T14:12:06.856Z,18.03
2022-10-31T14:14:46.846Z,14.87
2022-10-31T14:17:24.685Z,17.20
2022-10-31T14:20:41.797Z,19.33
2022-10-31T14:23:27.851Z,15.47
2022-10-31T14:25:56.512Z,19.17
2022-10-31T14:28:36.434Z,19.10
2022-10-31T14:31:05.055Z,14.60
2022-10-31T14:33:35.897Z,14.43
2022-10-31T14:36:14.819Z,15.43
2022-10-31T14:38:59.833Z,16.77
2022-10-31T14:41:54.924Z,16.10
2022-10-31T14:45:02.936Z,14.60
2022-10-31T14:47:41.770Z,15.37
2022-10-31T14:50:27.848Z,14.43
2022-10-31T14:52:59.769Z,13.93
2022-10-31T14:55:29.829Z,12.87
2022-10-31T14:58:07.290Z,18.17
2022-10-31T15:00:37.830Z,22.87
2022-10-31T15:03:16.524Z,14.37
2022-10-31T15:05:52.692Z,13.80
2022-10-31T15:08:41.443Z,14.83
2022-10-31T15:11:16.050Z,13.87
2022-10-31T15:13:47.078Z,15.00
2022-10-31T15:16:19.406Z,12.60
2022-10-31T15:18:57.583Z,13.03
2022-10-31T15:21:29.979Z,12.70
2022-10-31T15:24:00.993Z,17.97
2022-10-31T15:26:35.330Z,12.47
2022-10-31T15:29:06.295Z,13.60
2022-10-31T15:31:35.669Z,10.53
2022-10-31T15:34:09.542Z,12.27
2022-10-31T15:36:39.418Z,12.17
2022-10-31T15:39:07.849Z,12.67
2022-10-31T15:41:50.321Z,11.37
2022-10-31T15:44:26.553Z,11.43
2022-10-31T15:47:00.011Z,10.87
2022-10-31T15:49:37.937Z,14.87
2022-10-31T15:52:16.051Z,11.47
2022-10-31T15:54:50.122Z,11.20
2022-10-31T15:57:18.902Z,12.37
2022-10-31T15:59:50.455Z,13.53
2022-10-31T16:02:23.630Z,12.77
2022-10-31T16:04:58.970Z,15.17
2022-10-31T16:07:34.123Z,13.97
2022-10-31T16:10:05.259Z,19.33
2022-10-31T16:12:38.780Z,14.17
2022-10-31T16:15:15.699Z,13.27
2022-10-31T16:17:48.756Z,14.17
2022-10-31T16:20:23.354Z,16.70
2022-10-31T16:22:55.519Z,14.73
2022-10-31T16:25:29.129Z,17.90
2022-10-31T16:28:07.282Z,14.70
2022-10-31T16:30:45.408Z,16.07
2022-10-31T16:33:36.968Z,18.97
2022-10-31T16:36:35.897Z,21.53
2022-10-31T16:39:06.417Z,18.37
2022-10-31T16:41:40.975Z,18.33
2022-10-31T16:44:24.104Z,18.13
2022-10-31T16:47:12.057Z,19.80
2022-10-31T16:49:40.394Z,25.43
2022-10-31T16:52:09.014Z,28.40
2022-10-31T16:54:38.990Z,25.07
2022-10-31T16:57:08.615Z,22.43
2022-10-31T16:59:37.342Z,25.43
2022-10-31T17:02:06.696Z,23.13
2022-10-31T17:07:08.449Z,26.67
2022-10-31T17:09:38.356Z,29.27
2022-10-31T17:12:08.360Z,28.57
2022-10-31T17:14:37.020Z,32.67
2022-10-31T17:17:05.953Z,35.90
2022-10-31T17:19:35.013Z,39.47
2022-10-31T17:22:04.174Z,46.80
2022-10-31T17:24:32.662Z,37.47
2022-10-31T17:27:02.445Z,37.63
2022-10-31T17:29:30.750Z,31.03
2022-10-31T17:31:59.640Z,35.63
2022-10-31T17:34:27.946Z,41.90
2022-10-31T17:36:56.288Z,41.47
2022-10-31T17:39:24.802Z,38.87
2022-10-31T17:41:53.727Z,43.60
2022-10-31T17:44:23.569Z,48.17
2022-10-31T17:46:51.863Z,45.70
2022-10-31T17:49:21.781Z,48.13
2022-10-31T17:51:50.685Z,45.10
2022-10-31T17:54:22.678Z,48.67
2022-10-31T17:56:53.384Z,41.47
2022-10-31T17:59:23.186Z,47.47
2022-10-31T18:01:51.633Z,40.77
2022-10-31T18:04:20.220Z,46.40
2022-10-31T18:06:49.872Z,44.30
2022-10-31T18:09:18.325Z,49.13
2022-10-31T18:11:47.225Z,45.57
2022-10-31T18:14:15.604Z,69.73
2022-10-31T18:16:45.450Z,42.67
2022-10-31T18:19:18.547Z,42.97
2022-10-31T18:21:47.521Z,60.27
2022-10-31T18:24:15.938Z,48.33
2022-10-31T18:26:45.137Z,55.00
2022-10-31T18:29:14.239Z,58.57
2022-10-31T18:31:46.539Z,58.10
2022-10-31T18:34:15.034Z,81.17
2022-10-31T18:36:43.339Z,73.10
2022-10-31T18:39:12.092Z,62.10
2022-10-31T18:41:41.148Z,74.53
2022-10-31T18:44:10.376Z,61.80
2022-10-31T18:46:40.467Z,61.90
2022-10-31T18:49:11.238Z,53.47
2022-10-31T18:51:39.725Z,49.30
2022-10-31T18:54:08.153Z,44.47
2022-10-31T18:56:36.905Z,44.90
2022-10-31T18:59:05.332Z,45.37
2022-10-31T19:01:34.079Z,42.57
2022-10-31T19:04:02.621Z,47.73
2022-10-31T19:06:32.730Z,54.37
2022-10-31T19:09:03.207Z,52.07
2022-10-31T19:11:34.089Z,53.80
2022-10-31T19:14:02.793Z,54.63
2022-10-31T19:16:31.073Z,50.53
2022-10-31T19:19:01.644Z,53.87
2022-10-31T19:21:33.834Z,56.90
2022-10-31T19:24:03.349Z,56.33
2022-10-31T19:26:31.790Z,54.50
2022-10-31T19:29:00.363Z,57.37
2022-10-31T19:31:28.821Z,62.73
2022-10-31T19:33:57.263Z,60.13
2022-10-31T19:36:26.872Z,63.57
2022-10-31T19:38:56.931Z,73.47
2022-10-31T19:41:28.069Z,70.80
2022-10-31T19:43:57.093Z,63.77
2022-10-31T19:46:52.758Z,66.50
2022-10-31T19:49:14.919Z,54.33
2022-10-31T19:51:43.290Z,63.57
2022-10-31T19:54:13.504Z,62.20
2022-10-31T19:56:42.118Z,63.63
2022-10-31T19:59:10.787Z,63.10
2022-10-31T20:01:39.354Z,63.03
2022-10-31T20:04:08.086Z,59.17
2022-10-31T20:06:43.947Z,71.90
2022-10-31T20:09:16.549Z,62.10
2022-10-31T20:11:46.886Z,59.53
2022-10-31T20:14:17.829Z,61.23
2022-10-31T20:16:46.906Z,66.07
2022-10-31T20:19:15.556Z,63.80
2022-10-31T20:21:44.420Z,62.50
2022-10-31T20:24:14.428Z,61.33
2022-10-31T20:26:43.596Z,66.47
2022-10-31T20:29:16.237Z,63.07
2022-10-31T20:31:46.696Z,64.43
2022-10-31T20:34:15.911Z,67.30
2022-10-31T20:36:44.692Z,62.07
2022-10-31T20:39:14.817Z,64.00
2022-10-31T20:41:43.146Z,65.87
2022-10-31T20:44:11.701Z,63.20
2022-10-31T20:46:40.770Z,63.47
2022-10-31T20:49:09.352Z,70.20
2022-10-31T20:51:37.697Z,66.70
2022-10-31T20:54:06.871Z,70.63
2022-10-31T20:56:38.268Z,63.57
2022-10-31T20:59:07.347Z,64.60
2022-10-31T21:01:38.630Z,67.80
2022-10-31T21:04:11.945Z,69.03
2022-10-31T21:06:44.001Z,66.40
2022-10-31T21:09:15.031Z,66.77
2022-10-31T21:11:45.229Z,68.57
2022-10-31T21:14:13.939Z,63.30
2022-10-31T21:16:42.526Z,62.10
2022-10-31T21:19:10.862Z,61.23
2022-10-31T21:21:39.329Z,60.03
2022-10-31T21:24:11.605Z,61.70
2022-10-31T21:26:43.094Z,57.73
2022-10-31T21:29:14.125Z,56.57
2022-10-31T21:31:43.337Z,55.90
2022-10-31T21:34:12.180Z,55.40
2022-10-31T21:36:41.054Z,57.50
2022-10-31T21:39:10.829Z,63.03
2022-10-31T21:41:39.302Z,57.03
2022-10-31T21:44:07.782Z,49.60
2022-10-31T21:46:38.829Z,58.10
2022-10-31T21:49:08.160Z,53.27
2022-10-31T21:51:40.978Z,52.10
2022-10-31T21:54:43.243Z,52.00
2022-10-31T21:57:11.750Z,51.00
2022-10-31T21:59:49.513Z,51.97
2022-10-31T22:02:24.877Z,49.23
2022-10-31T22:04:54.287Z,50.60
2022-10-31T22:07:41.319Z,50.00
2022-10-31T22:10:13.083Z,48.17
2022-10-31T22:12:50.449Z,44.67
2022-10-31T22:15:23.337Z,46.33
2022-10-31T22:18:10.154Z,52.80
2022-10-31T22:20:54.721Z,44.97
2022-10-31T22:23:24.680Z,39.47
2022-10-31T22:26:01.330Z,42.57
2022-10-31T22:28:31.777Z,40.57
2022-10-31T22:31:06.566Z,39.17
2022-10-31T22:36:20.393Z,37.50
2022-10-31T22:38:52.363Z,36.57
2022-10-31T22:41:30.676Z,33.97
2022-10-31T22:44:03.101Z,37.37
2022-10-31T22:46:37.173Z,35.27
2022-10-31T22:49:13.967Z,31.93
2022-10-31T22:51:45.330Z,35.70
2022-10-31T22:54:17.727Z,32.57
2022-10-31T22:56:53.237Z,33.63
2022-10-31T22:59:22.422Z,31.47
2022-10-31T23:01:52.200Z,32.63
2022-10-31T23:07:23.050Z,29.70
2022-10-31T23:10:05.499Z,29.63
2022-10-31T23:12:52.084Z,32.30
2022-10-31T23:15:20.488Z,29.40
2022-10-31T23:17:59.059Z,29.10
2022-10-31T23:20:54.147Z,30.77
2022-10-31T23:23:29.578Z,31.53
2022-10-31T23:26:21.144Z,35.10
2022-10-31T23:29:05.841Z,31.37
2022-10-31T23:31:36.932Z,32.03
2022-10-31T23:34:12.168Z,33.20
2022-10-31T23:36:49.595Z,29.13
2022-10-31T23:39:29.991Z,32.37
2022-10-31T23:42:30.493Z,32.53
2022-10-31T23:45:04.283Z,35.43
2022-10-31T23:47:49.277Z,32.17
2022-10-31T23:54:00.623Z,34.60
2022-10-31T23:56:32.749Z,26.27
2022-10-31T23:59:08.855Z,30.60
